Terminal Aerodrome Forecast
Issued by NWS Cleveland, OH

Home | Current Version | Previous Version | Text Only | Print | Product List | Glossary Off
Versions: 1 2 3 4 5 6 7 8 9 10 11 12 13 14 15 16 17 18 19 20 21 22

155
FTUS41 KCLE 130959 AAB
TAFERI
TAF AMD
KERI 130959Z 1310/1406 29015G25KT P6SM VCSH SCT025 OVC035
      TEMPO 1311/1314 2SM -SHSN SCT008 OVC015
     FM131500 28015KT P6SM OVC015
     FM132000 25011KT 3SM -SN OVC015
      TEMPO 1402/1406 1/2SM SN OVC006=

USA.gov is the U.S. government's official web portal to all federal, state and local government web resources and services.